Terminal Aerodrome Forecast
Issued by NWS Springfield, MO

Home | Current Version | Previous Version | Text Only | Print | Product List | Glossary On
Versions: 1 2 3 4 5 6 7 8 9 10 11 12 13 14 15 16 17 18 19
000
FTUS43 KSGF 260200 AAA
TAFSGF
TAF AMD
KSGF 260216Z 2602/2624 34012KT P6SM SCT015 BKN025
     FM260400 35010KT P6SM SCT007 BKN015 OVC025
     FM260600 01006KT 5SM BR OVC007
     FM261400 05009KT P6SM SCT007 BKN015
     FM261700 06012KT P6SM BKN050=

USA.gov is the U.S. government's official web portal to all federal, state and local government web resources and services.